sensor_id;sensor_type;location;lat;lon;timestamp;P1;durP1;ratioP1;P2;durP2;ratioP2
72115;SDS011;59991;52.140;5.428;2022-07-23T00:00:08;4.30;;;2.63;;
72115;SDS011;59991;52.140;5.428;2022-07-23T00:00:40;4.30;;;3.10;;
72115;SDS011;59991;52.140;5.428;2022-07-23T00:01:11;3.30;;;2.38;;
72115;SDS011;59991;52.140;5.428;2022-07-23T00:01:43;2.92;;;2.40;;
72115;SDS011;59991;52.140;5.428;2022-07-23T00:02:14;2.97;;;2.30;;
72115;SDS011;59991;52.140;5.428;2022-07-23T00:03:04;3.90;;;2.72;;
72115;SDS011;59991;52.140;5.428;2022-07-23T00:03:35;5.73;;;2.50;;
72115;SDS011;59991;52.140;5.428;2022-07-23T00:04:25;2.55;;;2.08;;
72115;SDS011;59991;52.140;5.428;2022-07-23T00:04:57;3.65;;;2.55;;
72115;SDS011;59991;52.140;5.428;2022-07-23T00:05:28;4.03;;;2.83;;
72115;SDS011;59991;52.140;5.428;2022-07-23T00:06:00;3.40;;;2.15;;
72115;SDS011;59991;52.140;5.428;2022-07-23T00:06:32;3.80;;;2.25;;
72115;SDS011;59991;52.140;5.428;2022-07-23T00:07:04;3.75;;;3.03;;
72115;SDS011;59991;52.140;5.428;2022-07-23T00:07:35;4.65;;;2.42;;
72115;SDS011;59991;52.140;5.428;2022-07-23T00:08:07;4.57;;;2.55;;
72115;SDS011;59991;52.140;5.428;2022-07-23T00:08:44;4.45;;;2.35;;
72115;SDS011;59991;52.140;5.428;2022-07-23T00:09:15;5.03;;;2.40;;
72115;SDS011;59991;52.140;5.428;2022-07-23T00:09:47;4.63;;;2.50;;
72115;SDS011;59991;52.140;5.428;2022-07-23T00:10:18;3.28;;;2.30;;
72115;SDS011;59991;52.140;5.428;2022-07-23T00:10:49;3.13;;;2.60;;
72115;SDS011;59991;52.140;5.428;2022-07-23T00:11:39;3.28;;;2.97;;
72115;SDS011;59991;52.140;5.428;2022-07-23T00:12:10;4.30;;;2.70;;
72115;SDS011;59991;52.140;5.428;2022-07-23T00:12:42;6.13;;;2.40;;
72115;SDS011;59991;52.140;5.428;2022-07-23T00:13:22;3.42;;;3.13;;
72115;SDS011;59991;52.140;5.428;2022-07-23T00:13:53;4.13;;;2.63;;
72115;SDS011;59991;52.140;5.428;2022-07-23T00:14:26;3.42;;;2.67;;
72115;SDS011;59991;52.140;5.428;2022-07-23T00:14:57;2.47;;;2.20;;
72115;SDS011;59991;52.140;5.428;2022-07-23T00:15:28;7.07;;;2.53;;
72115;SDS011;59991;52.140;5.428;2022-07-23T00:16:00;3.28;;;2.60;;
72115;SDS011;59991;52.140;5.428;2022-07-23T00:16:49;3.35;;;2.42;;
72115;SDS011;59991;52.140;5.428;2022-07-23T00:17:39;2.65;;;2.40;;
72115;SDS011;59991;52.140;5.428;2022-07-23T00:18:11;4.22;;;2.50;;
72115;SDS011;59991;52.140;5.428;2022-07-23T00:18:42;3.08;;;2.40;;
72115;SDS011;59991;52.140;5.428;2022-07-23T00:19:13;2.83;;;2.63;;
72115;SDS011;59991;52.140;5.428;2022-07-23T00:19:45;4.18;;;3.13;;
72115;SDS011;59991;52.140;5.428;2022-07-23T00:20:16;6.18;;;2.80;;
72115;SDS011;59991;52.140;5.428;2022-07-23T00:20:48;2.93;;;2.67;;
72115;SDS011;59991;52.140;5.428;2022-07-23T00:21:19;3.85;;;2.65;;
72115;SDS011;59991;52.140;5.428;2022-07-23T00:21:51;2.65;;;2.40;;
72115;SDS011;59991;52.140;5.428;2022-07-23T00:22:22;3.67;;;2.75;;
72115;SDS011;59991;52.140;5.428;2022-07-23T00:22:54;3.92;;;3.28;;
72115;SDS011;59991;52.140;5.428;2022-07-23T00:24:16;3.08;;;2.50;;
72115;SDS011;59991;52.140;5.428;2022-07-23T00:24:48;4.47;;;2.67;;
72115;SDS011;59991;52.140;5.428;2022-07-23T00:25:39;3.50;;;2.83;;
72115;SDS011;59991;52.140;5.428;2022-07-23T00:26:10;3.35;;;2.45;;
72115;SDS011;59991;52.140;5.428;2022-07-23T00:26:42;3.03;;;2.70;;
72115;SDS011;59991;52.140;5.428;2022-07-23T00:27:13;2.90;;;2.53;;
72115;SDS011;59991;52.140;5.428;2022-07-23T00:27:45;3.40;;;2.75;;
72115;SDS011;59991;52.140;5.428;2022-07-23T00:28:16;5.32;;;2.40;;
72115;SDS011;59991;52.140;5.428;2022-07-23T00:28:47;4.85;;;2.60;;
72115;SDS011;59991;52.140;5.428;2022-07-23T00:29:19;2.53;;;2.30;;
72115;SDS011;59991;52.140;5.428;2022-07-23T00:29:50;3.45;;;2.85;;
72115;SDS011;59991;52.140;5.428;2022-07-23T00:30:21;2.75;;;2.03;;
72115;SDS011;59991;52.140;5.428;2022-07-23T00:30:53;3.20;;;2.90;;
72115;SDS011;59991;52.140;5.428;2022-07-23T00:31:25;5.05;;;3.55;;
72115;SDS011;59991;52.140;5.428;2022-07-23T00:31:56;2.97;;;2.53;;
72115;SDS011;59991;52.140;5.428;2022-07-23T00:32:28;4.28;;;3.00;;
72115;SDS011;59991;52.140;5.428;2022-07-23T00:33:19;3.33;;;3.05;;
72115;SDS011;59991;52.140;5.428;2022-07-23T00:33:50;4.90;;;3.30;;
72115;SDS011;59991;52.140;5.428;2022-07-23T00:34:22;2.70;;;2.50;;
72115;SDS011;59991;52.140;5.428;2022-07-23T00:34:53;3.13;;;2.83;;
72115;SDS011;59991;52.140;5.428;2022-07-23T00:35:25;3.60;;;2.75;;
72115;SDS011;59991;52.140;5.428;2022-07-23T00:35:59;5.25;;;3.10;;
72115;SDS011;59991;52.140;5.428;2022-07-23T00:36:30;5.95;;;3.30;;
72115;SDS011;59991;52.140;5.428;2022-07-23T00:37:04;4.10;;;2.50;;
72115;SDS011;59991;52.140;5.428;2022-07-23T00:37:36;5.77;;;3.03;;
72115;SDS011;59991;52.140;5.428;2022-07-23T00:38:08;3.30;;;3.00;;
72115;SDS011;59991;52.140;5.428;2022-07-23T00:38:40;4.05;;;3.03;;
72115;SDS011;59991;52.140;5.428;2022-07-23T00:39:12;3.67;;;3.38;;
72115;SDS011;59991;52.140;5.428;2022-07-23T00:39:43;3.60;;;2.90;;
72115;SDS011;59991;52.140;5.428;2022-07-23T00:40:14;3.20;;;2.78;;
72115;SDS011;59991;52.140;5.428;2022-07-23T00:40:46;3.67;;;3.10;;
72115;SDS011;59991;52.140;5.428;2022-07-23T00:41:17;4.07;;;3.65;;
72115;SDS011;59991;52.140;5.428;2022-07-23T00:41:49;4.10;;;3.45;;
72115;SDS011;59991;52.140;5.428;2022-07-23T00:42:21;3.50;;;3.20;;
72115;SDS011;59991;52.140;5.428;2022-07-23T00:42:53;3.83;;;2.80;;
72115;SDS011;59991;52.140;5.428;2022-07-23T00:43:24;5.35;;;3.08;;
72115;SDS011;59991;52.140;5.428;2022-07-23T00:43:56;13.52;;;3.45;;
72115;SDS011;59991;52.140;5.428;2022-07-23T00:44:45;4.22;;;3.13;;
72115;SDS011;59991;52.140;5.428;2022-07-23T00:45:18;4.53;;;3.72;;
72115;SDS011;59991;52.140;5.428;2022-07-23T00:45:50;7.15;;;4.75;;
72115;SDS011;59991;52.140;5.428;2022-07-23T00:46:22;4.47;;;3.83;;
72115;SDS011;59991;52.140;5.428;2022-07-23T00:46:55;4.03;;;3.63;;
72115;SDS011;59991;52.140;5.428;2022-07-23T00:47:28;4.00;;;3.63;;
72115;SDS011;59991;52.140;5.428;2022-07-23T00:47:59;5.13;;;3.67;;
72115;SDS011;59991;52.140;5.428;2022-07-23T00:48:32;5.23;;;3.63;;
72115;SDS011;59991;52.140;5.428;2022-07-23T00:49:03;3.42;;;3.13;;
72115;SDS011;59991;52.140;5.428;2022-07-23T00:50:25;4.05;;;3.72;;
72115;SDS011;59991;52.140;5.428;2022-07-23T00:50:57;3.20;;;3.00;;
72115;SDS011;59991;52.140;5.428;2022-07-23T00:51:28;4.47;;;3.45;;
72115;SDS011;59991;52.140;5.428;2022-07-23T00:52:01;4.32;;;2.92;;
72115;SDS011;59991;52.140;5.428;2022-07-23T00:52:34;3.28;;;2.75;;
72115;SDS011;59991;52.140;5.428;2022-07-23T00:53:06;2.88;;;2.67;;
72115;SDS011;59991;52.140;5.428;2022-07-23T00:53:39;4.57;;;3.08;;
72115;SDS011;59991;52.140;5.428;2022-07-23T00:54:11;3.93;;;3.20;;
72115;SDS011;59991;52.140;5.428;2022-07-23T00:54:42;3.50;;;3.17;;
72115;SDS011;59991;52.140;5.428;2022-07-23T00:55:14;3.65;;;3.35;;
72115;SDS011;59991;52.140;5.428;2022-07-23T00:56:05;4.07;;;3.30;;
72115;SDS011;59991;52.140;5.428;2022-07-23T00:56:37;4.03;;;3.72;;
72115;SDS011;59991;52.140;5.428;2022-07-23T00:57:10;3.38;;;3.10;;
72115;SDS011;59991;52.140;5.428;2022-07-23T00:57:42;4.15;;;3.85;;
72115;SDS011;59991;52.140;5.428;2022-07-23T00:58:14;5.13;;;4.00;;
72115;SDS011;59991;52.140;5.428;2022-07-23T00:59:05;3.97;;;3.67;;
72115;SDS011;59991;52.140;5.428;2022-07-23T00:59:40;4.57;;;3.40;;
72115;SDS011;59991;52.140;5.428;2022-07-23T01:00:13;4.30;;;3.03;;
72115;SDS011;59991;52.140;5.428;2022-07-23T01:00:45;3.80;;;3.50;;
72115;SDS011;59991;52.140;5.428;2022-07-23T01:01:17;4.07;;;3.47;;
72115;SDS011;59991;52.140;5.428;2022-07-23T01:01:48;4.30;;;3.83;;
72115;SDS011;59991;52.140;5.428;2022-07-23T01:02:38;4.72;;;4.28;;
72115;SDS011;59991;52.140;5.428;2022-07-23T01:03:10;4.15;;;3.47;;
72115;SDS011;59991;52.140;5.428;2022-07-23T01:03:42;3.67;;;2.90;;
72115;SDS011;59991;52.140;5.428;2022-07-23T01:04:13;4.22;;;3.83;;
72115;SDS011;59991;52.140;5.428;2022-07-23T01:05:21;5.05;;;3.47;;
72115;SDS011;59991;52.140;5.428;2022-07-23T01:05:55;4.72;;;3.65;;
72115;SDS011;59991;52.140;5.428;2022-07-23T01:06:27;3.73;;;3.30;;
72115;SDS011;59991;52.140;5.428;2022-07-23T01:06:59;6.05;;;3.70;;
72115;SDS011;59991;52.140;5.428;2022-07-23T01:07:31;6.80;;;3.83;;
72115;SDS011;59991;52.140;5.428;2022-07-23T01:08:02;4.72;;;3.90;;
72115;SDS011;59991;52.140;5.428;2022-07-23T01:08:33;4.40;;;3.53;;
72115;SDS011;59991;52.140;5.428;2022-07-23T01:09:05;4.43;;;3.33;;
72115;SDS011;59991;52.140;5.428;2022-07-23T01:09:37;5.07;;;3.75;;
72115;SDS011;59991;52.140;5.428;2022-07-23T01:10:27;3.75;;;3.45;;
72115;SDS011;59991;52.140;5.428;2022-07-23T01:11:02;4.80;;;3.67;;
72115;SDS011;59991;52.140;5.428;2022-07-23T01:11:35;4.88;;;3.90;;
72115;SDS011;59991;52.140;5.428;2022-07-23T01:12:07;4.03;;;3.73;;
72115;SDS011;59991;52.140;5.428;2022-07-23T01:12:39;3.90;;;3.28;;
72115;SDS011;59991;52.140;5.428;2022-07-23T01:13:10;3.95;;;3.25;;
72115;SDS011;59991;52.140;5.428;2022-07-23T01:13:42;4.00;;;3.65;;
72115;SDS011;59991;52.140;5.428;2022-07-23T01:14:14;3.70;;;3.40;;
72115;SDS011;59991;52.140;5.428;2022-07-23T01:14:57;5.57;;;3.25;;
72115;SDS011;59991;52.140;5.428;2022-07-23T01:15:29;4.10;;;3.35;;
72115;SDS011;59991;52.140;5.428;2022-07-23T01:16:01;3.38;;;3.05;;
72115;SDS011;59991;52.140;5.428;2022-07-23T01:16:33;4.05;;;3.75;;
72115;SDS011;59991;52.140;5.428;2022-07-23T01:17:04;5.13;;;4.13;;
72115;SDS011;59991;52.140;5.428;2022-07-23T01:17:36;4.67;;;3.50;;
72115;SDS011;59991;52.140;5.428;2022-07-23T01:18:08;4.95;;;3.47;;
72115;SDS011;59991;52.140;5.428;2022-07-23T01:18:40;4.60;;;3.83;;
72115;SDS011;59991;52.140;5.428;2022-07-23T01:19:11;4.38;;;4.07;;
72115;SDS011;59991;52.140;5.428;2022-07-23T01:19:43;4.88;;;4.35;;
72115;SDS011;59991;52.140;5.428;2022-07-23T01:20:14;3.20;;;2.90;;
72115;SDS011;59991;52.140;5.428;2022-07-23T01:20:46;3.90;;;3.58;;
72115;SDS011;59991;52.140;5.428;2022-07-23T01:21:17;3.58;;;3.13;;
72115;SDS011;59991;52.140;5.428;2022-07-23T01:21:50;4.70;;;3.85;;
72115;SDS011;59991;52.140;5.428;2022-07-23T01:22:22;3.95;;;2.80;;
72115;SDS011;59991;52.140;5.428;2022-07-23T01:22:54;4.23;;;3.63;;
72115;SDS011;59991;52.140;5.428;2022-07-23T01:23:26;4.05;;;3.13;;
72115;SDS011;59991;52.140;5.428;2022-07-23T01:23:57;3.72;;;3.38;;
72115;SDS011;59991;52.140;5.428;2022-07-23T01:24:29;3.97;;;3.67;;
72115;SDS011;59991;52.140;5.428;2022-07-23T01:25:00;4.13;;;3.83;;
72115;SDS011;59991;52.140;5.428;2022-07-23T01:25:32;5.30;;;3.78;;
72115;SDS011;59991;52.140;5.428;2022-07-23T01:26:03;5.20;;;3.35;;
72115;SDS011;59991;52.140;5.428;2022-07-23T01:26:35;4.60;;;4.20;;
72115;SDS011;59991;52.140;5.428;2022-07-23T01:27:07;4.00;;;3.60;;
72115;SDS011;59991;52.140;5.428;2022-07-23T01:27:39;3.65;;;3.35;;
72115;SDS011;59991;52.140;5.428;2022-07-23T01:28:10;5.27;;;3.53;;
72115;SDS011;59991;52.140;5.428;2022-07-23T01:28:42;4.40;;;3.45;;
72115;SDS011;59991;52.140;5.428;2022-07-23T01:29:14;4.25;;;3.67;;
72115;SDS011;59991;52.140;5.428;2022-07-23T01:29:46;3.72;;;3.38;;
72115;SDS011;59991;52.140;5.428;2022-07-23T01:30:17;3.10;;;2.90;;
72115;SDS011;59991;52.140;5.428;2022-07-23T01:30:49;3.95;;;3.65;;
72115;SDS011;59991;52.140;5.428;2022-07-23T01:31:20;4.95;;;3.15;;
72115;SDS011;59991;52.140;5.428;2022-07-23T01:31:52;3.75;;;3.40;;
72115;SDS011;59991;52.140;5.428;2022-07-23T01:32:23;3.95;;;3.63;;
72115;SDS011;59991;52.140;5.428;2022-07-23T01:32:54;4.35;;;3.60;;
72115;SDS011;59991;52.140;5.428;2022-07-23T01:33:26;4.60;;;4.17;;
72115;SDS011;59991;52.140;5.428;2022-07-23T01:33:57;5.32;;;3.78;;
72115;SDS011;59991;52.140;5.428;2022-07-23T01:34:30;4.45;;;3.20;;
72115;SDS011;59991;52.140;5.428;2022-07-23T01:35:02;4.20;;;3.90;;
72115;SDS011;59991;52.140;5.428;2022-07-23T01:35:51;4.47;;;3.83;;
72115;SDS011;59991;52.140;5.428;2022-07-23T01:36:23;4.88;;;3.60;;
72115;SDS011;59991;52.140;5.428;2022-07-23T01:36:54;3.70;;;3.30;;
72115;SDS011;59991;52.140;5.428;2022-07-23T01:37:25;4.00;;;3.63;;
72115;SDS011;59991;52.140;5.428;2022-07-23T01:37:57;4.50;;;4.00;;
72115;SDS011;59991;52.140;5.428;2022-07-23T01:38:46;3.75;;;3.35;;
72115;SDS011;59991;52.140;5.428;2022-07-23T01:39:17;5.87;;;4.00;;
72115;SDS011;59991;52.140;5.428;2022-07-23T01:39:49;4.45;;;4.05;;
72115;SDS011;59991;52.140;5.428;2022-07-23T01:40:20;4.20;;;3.40;;
72115;SDS011;59991;52.140;5.428;2022-07-23T01:40:53;4.88;;;3.33;;
72115;SDS011;59991;52.140;5.428;2022-07-23T01:41:25;6.20;;;4.72;;
72115;SDS011;59991;52.140;5.428;2022-07-23T01:41:57;4.20;;;3.58;;
72115;SDS011;59991;52.140;5.428;2022-07-23T01:42:28;5.00;;;3.85;;
72115;SDS011;59991;52.140;5.428;2022-07-23T01:42:59;6.88;;;3.78;;
72115;SDS011;59991;52.140;5.428;2022-07-23T01:43:31;4.07;;;3.60;;
72115;SDS011;59991;52.140;5.428;2022-07-23T01:44:52;4.13;;;3.43;;
72115;SDS011;59991;52.140;5.428;2022-07-23T01:45:24;4.30;;;3.90;;
72115;SDS011;59991;52.140;5.428;2022-07-23T01:45:55;4.10;;;3.75;;
72115;SDS011;59991;52.140;5.428;2022-07-23T01:46:44;3.72;;;3.42;;
72115;SDS011;59991;52.140;5.428;2022-07-23T01:47:15;6.30;;;3.78;;
72115;SDS011;59991;52.140;5.428;2022-07-23T01:47:47;4.38;;;3.97;;
72115;SDS011;59991;52.140;5.428;2022-07-23T01:48:19;3.83;;;3.53;;
72115;SDS011;59991;52.140;5.428;2022-07-23T01:48:50;4.85;;;4.03;;
72115;SDS011;59991;52.140;5.428;2022-07-23T01:49:23;4.70;;;4.30;;
72115;SDS011;59991;52.140;5.428;2022-07-23T01:49:54;4.38;;;3.75;;
72115;SDS011;59991;52.140;5.428;2022-07-23T01:50:25;4.87;;;4.27;;
72115;SDS011;59991;52.140;5.428;2022-07-23T01:50:57;4.80;;;4.13;;
72115;SDS011;59991;52.140;5.428;2022-07-23T01:51:28;5.32;;;4.13;;
72115;SDS011;59991;52.140;5.428;2022-07-23T01:51:59;5.22;;;4.72;;
72115;SDS011;59991;52.140;5.428;2022-07-23T01:52:31;4.80;;;4.30;;
72115;SDS011;59991;52.140;5.428;2022-07-23T01:53:02;4.70;;;3.72;;
72115;SDS011;59991;52.140;5.428;2022-07-23T01:53:34;4.88;;;3.78;;
72115;SDS011;59991;52.140;5.428;2022-07-23T01:54:05;5.43;;;3.85;;
72115;SDS011;59991;52.140;5.428;2022-07-23T01:54:37;6.95;;;3.90;;
72115;SDS011;59991;52.140;5.428;2022-07-23T01:55:10;4.13;;;3.72;;
72115;SDS011;59991;52.140;5.428;2022-07-23T01:55:49;4.13;;;3.83;;
72115;SDS011;59991;52.140;5.428;2022-07-23T01:56:38;7.47;;;3.78;;
72115;SDS011;59991;52.140;5.428;2022-07-23T01:57:09;4.65;;;3.97;;
72115;SDS011;59991;52.140;5.428;2022-07-23T01:57:40;3.97;;;3.65;;
72115;SDS011;59991;52.140;5.428;2022-07-23T01:58:12;5.13;;;4.05;;
72115;SDS011;59991;52.140;5.428;2022-07-23T01:58:44;3.95;;;3.53;;
72115;SDS011;59991;52.140;5.428;2022-07-23T01:59:15;4.28;;;3.88;;
72115;SDS011;59991;52.140;5.428;2022-07-23T01:59:46;5.10;;;4.20;;
72115;SDS011;59991;52.140;5.428;2022-07-23T02:00:18;4.63;;;4.25;;
72115;SDS011;59991;52.140;5.428;2022-07-23T02:00:49;3.55;;;3.25;;
72115;SDS011;59991;52.140;5.428;2022-07-23T02:01:23;4.40;;;3.23;;
72115;SDS011;59991;52.140;5.428;2022-07-23T02:01:54;6.13;;;3.75;;
72115;SDS011;59991;52.140;5.428;2022-07-23T02:02:26;4.38;;;4.00;;
72115;SDS011;59991;52.140;5.428;2022-07-23T02:02:58;6.38;;;4.22;;
72115;SDS011;59991;52.140;5.428;2022-07-23T02:03:29;4.75;;;4.15;;
72115;SDS011;59991;52.140;5.428;2022-07-23T02:04:01;5.07;;;3.85;;
72115;SDS011;59991;52.140;5.428;2022-07-23T02:04:32;4.82;;;4.00;;
72115;SDS011;59991;52.140;5.428;2022-07-23T02:05:07;5.72;;;3.75;;
72115;SDS011;59991;52.140;5.428;2022-07-23T02:05:39;5.28;;;4.18;;
72115;SDS011;59991;52.140;5.428;2022-07-23T02:06:10;6.00;;;4.20;;
72115;SDS011;59991;52.140;5.428;2022-07-23T02:07:00;5.27;;;3.80;;
72115;SDS011;59991;52.140;5.428;2022-07-23T02:07:32;4.07;;;3.67;;
72115;SDS011;59991;52.140;5.428;2022-07-23T02:08:05;4.50;;;3.63;;
72115;SDS011;59991;52.140;5.428;2022-07-23T02:08:36;4.57;;;4.18;;
72115;SDS011;59991;52.140;5.428;2022-07-23T02:09:08;4.03;;;3.72;;
72115;SDS011;59991;52.140;5.428;2022-07-23T02:09:39;4.85;;;3.95;;
72115;SDS011;59991;52.140;5.428;2022-07-23T02:10:11;3.97;;;3.60;;
72115;SDS011;59991;52.140;5.428;2022-07-23T02:11:32;10.85;;;3.67;;
72115;SDS011;59991;52.140;5.428;2022-07-23T02:12:03;4.65;;;3.83;;
72115;SDS011;59991;52.140;5.428;2022-07-23T02:12:35;3.80;;;3.43;;
72115;SDS011;59991;52.140;5.428;2022-07-23T02:13:07;8.43;;;4.00;;
72115;SDS011;59991;52.140;5.428;2022-07-23T02:14:04;4.53;;;4.13;;
72115;SDS011;59991;52.140;5.428;2022-07-23T02:14:35;4.88;;;3.85;;
72115;SDS011;59991;52.140;5.428;2022-07-23T02:15:09;4.15;;;3.85;;
72115;SDS011;59991;52.140;5.428;2022-07-23T02:15:42;4.20;;;3.85;;
72115;SDS011;59991;52.140;5.428;2022-07-23T02:16:13;5.82;;;3.42;;
72115;SDS011;59991;52.140;5.428;2022-07-23T02:16:45;4.90;;;4.53;;
72115;SDS011;59991;52.140;5.428;2022-07-23T02:17:16;5.15;;;4.10;;
72115;SDS011;59991;52.140;5.428;2022-07-23T02:17:48;4.70;;;4.07;;
72115;SDS011;59991;52.140;5.428;2022-07-23T02:18:19;4.90;;;3.70;;
72115;SDS011;59991;52.140;5.428;2022-07-23T02:18:50;3.53;;;3.22;;
72115;SDS011;59991;52.140;5.428;2022-07-23T02:19:22;4.05;;;3.75;;
72115;SDS011;59991;52.140;5.428;2022-07-23T02:19:53;4.35;;;3.95;;
72115;SDS011;59991;52.140;5.428;2022-07-23T02:20:24;5.65;;;4.28;;
72115;SDS011;59991;52.140;5.428;2022-07-23T02:20:56;4.90;;;3.83;;
72115;SDS011;59991;52.140;5.428;2022-07-23T02:21:27;4.65;;;3.78;;
72115;SDS011;59991;52.140;5.428;2022-07-23T02:22:17;4.85;;;4.43;;
72115;SDS011;59991;52.140;5.428;2022-07-23T02:22:48;6.47;;;4.30;;
72115;SDS011;59991;52.140;5.428;2022-07-23T02:23:20;4.57;;;4.18;;
72115;SDS011;59991;52.140;5.428;2022-07-23T02:23:51;4.10;;;3.60;;
72115;SDS011;59991;52.140;5.428;2022-07-23T02:24:23;3.97;;;3.65;;
72115;SDS011;59991;52.140;5.428;2022-07-23T02:24:54;5.38;;;3.70;;
72115;SDS011;59991;52.140;5.428;2022-07-23T02:25:26;5.15;;;4.30;;
72115;SDS011;59991;52.140;5.428;2022-07-23T02:26:15;4.18;;;3.88;;
72115;SDS011;59991;52.140;5.428;2022-07-23T02:26:51;5.40;;;3.35;;
72115;SDS011;59991;52.140;5.428;2022-07-23T02:27:22;3.75;;;3.45;;
72115;SDS011;59991;52.140;5.428;2022-07-23T02:27:54;3.75;;;3.45;;
72115;SDS011;59991;52.140;5.428;2022-07-23T02:28:25;4.32;;;3.28;;
72115;SDS011;59991;52.140;5.428;2022-07-23T02:28:57;4.07;;;3.47;;
72115;SDS011;59991;52.140;5.428;2022-07-23T02:29:28;4.60;;;3.50;;
72115;SDS011;59991;52.140;5.428;2022-07-23T02:30:00;4.78;;;3.85;;
72115;SDS011;59991;52.140;5.428;2022-07-23T02:30:31;7.95;;;3.88;;
72115;SDS011;59991;52.140;5.428;2022-07-23T02:31:03;4.35;;;4.03;;
72115;SDS011;59991;52.140;5.428;2022-07-23T02:31:34;4.05;;;3.75;;
72115;SDS011;59991;52.140;5.428;2022-07-23T02:32:06;4.32;;;3.45;;
72115;SDS011;59991;52.140;5.428;2022-07-23T02:32:38;4.35;;;3.78;;
72115;SDS011;59991;52.140;5.428;2022-07-23T02:33:10;4.43;;;4.13;;
72115;SDS011;59991;52.140;5.428;2022-07-23T02:33:42;6.78;;;3.92;;
72115;SDS011;59991;52.140;5.428;2022-07-23T02:34:13;3.92;;;3.47;;
72115;SDS011;59991;52.140;5.428;2022-07-23T02:34:44;4.00;;;3.63;;
72115;SDS011;59991;52.140;5.428;2022-07-23T02:36:06;4.80;;;3.63;;
72115;SDS011;59991;52.140;5.428;2022-07-23T02:36:56;4.15;;;3.75;;
72115;SDS011;59991;52.140;5.428;2022-07-23T02:38:19;3.70;;;3.40;;
72115;SDS011;59991;52.140;5.428;2022-07-23T02:38:50;3.65;;;3.35;;
72115;SDS011;59991;52.140;5.428;2022-07-23T02:39:22;4.45;;;4.00;;
72115;SDS011;59991;52.140;5.428;2022-07-23T02:39:53;5.93;;;4.05;;
72115;SDS011;59991;52.140;5.428;2022-07-23T02:40:24;5.97;;;3.95;;
72115;SDS011;59991;52.140;5.428;2022-07-23T02:40:56;5.17;;;3.60;;
72115;SDS011;59991;52.140;5.428;2022-07-23T02:41:27;3.83;;;3.53;;
72115;SDS011;59991;52.140;5.428;2022-07-23T02:41:59;3.95;;;3.53;;
72115;SDS011;59991;52.140;5.428;2022-07-23T02:42:30;5.53;;;4.53;;
72115;SDS011;59991;52.140;5.428;2022-07-23T02:43:01;6.95;;;4.35;;
72115;SDS011;59991;52.140;5.428;2022-07-23T02:43:33;4.38;;;4.05;;
72115;SDS011;59991;52.140;5.428;2022-07-23T02:44:04;4.18;;;3.80;;
72115;SDS011;59991;52.140;5.428;2022-07-23T02:44:35;4.20;;;3.80;;
72115;SDS011;59991;52.140;5.428;2022-07-23T02:45:07;4.47;;;3.80;;
72115;SDS011;59991;52.140;5.428;2022-07-23T02:45:39;4.35;;;3.83;;
72115;SDS011;59991;52.140;5.428;2022-07-23T02:46:10;5.73;;;4.03;;
72115;SDS011;59991;52.140;5.428;2022-07-23T02:47:00;3.90;;;3.55;;
72115;SDS011;59991;52.140;5.428;2022-07-23T02:47:31;5.15;;;3.40;;
72115;SDS011;59991;52.140;5.428;2022-07-23T02:48:03;5.13;;;3.95;;
72115;SDS011;59991;52.140;5.428;2022-07-23T02:48:35;3.90;;;3.53;;
72115;SDS011;59991;52.140;5.428;2022-07-23T02:49:06;4.03;;;3.35;;
72115;SDS011;59991;52.140;5.428;2022-07-23T02:49:38;4.53;;;3.70;;
72115;SDS011;59991;52.140;5.428;2022-07-23T02:50:09;4.03;;;3.50;;
72115;SDS011;59991;52.140;5.428;2022-07-23T02:50:40;6.25;;;4.30;;
72115;SDS011;59991;52.140;5.428;2022-07-23T02:51:12;3.95;;;3.55;;
72115;SDS011;59991;52.140;5.428;2022-07-23T02:52:01;4.80;;;3.50;;
72115;SDS011;59991;52.140;5.428;2022-07-23T02:52:32;4.35;;;3.70;;
72115;SDS011;59991;52.140;5.428;2022-07-23T02:53:03;4.40;;;3.17;;
72115;SDS011;59991;52.140;5.428;2022-07-23T02:53:52;4.15;;;3.85;;
72115;SDS011;59991;52.140;5.428;2022-07-23T02:54:24;6.90;;;4.20;;
72115;SDS011;59991;52.140;5.428;2022-07-23T02:54:55;3.97;;;3.40;;
72115;SDS011;59991;52.140;5.428;2022-07-23T02:55:27;4.03;;;3.63;;
72115;SDS011;59991;52.140;5.428;2022-07-23T02:55:58;5.32;;;3.70;;
72115;SDS011;59991;52.140;5.428;2022-07-23T02:56:29;3.38;;;3.13;;
72115;SDS011;59991;52.140;5.428;2022-07-23T02:57:01;3.40;;;2.88;;
72115;SDS011;59991;52.140;5.428;2022-07-23T02:57:32;4.90;;;3.93;;
72115;SDS011;59991;52.140;5.428;2022-07-23T02:58:04;4.30;;;4.00;;
72115;SDS011;59991;52.140;5.428;2022-07-23T02:58:35;3.67;;;3.38;;
72115;SDS011;59991;52.140;5.428;2022-07-23T02:59:07;3.70;;;3.40;;
72115;SDS011;59991;52.140;5.428;2022-07-23T02:59:38;4.43;;;4.07;;
72115;SDS011;59991;52.140;5.428;2022-07-23T03:00:10;3.80;;;3.50;;
72115;SDS011;59991;52.140;5.428;2022-07-23T03:00:42;3.08;;;2.88;;
72115;SDS011;59991;52.140;5.428;2022-07-23T03:01:14;3.50;;;3.30;;
72115;SDS011;59991;52.140;5.428;2022-07-23T03:01:48;4.68;;;3.88;;
72115;SDS011;59991;52.140;5.428;2022-07-23T03:02:20;4.20;;;3.53;;
72115;SDS011;59991;52.140;5.428;2022-07-23T03:02:51;3.00;;;2.80;;
72115;SDS011;59991;52.140;5.428;2022-07-23T03:03:22;4.60;;;2.78;;
72115;SDS011;59991;52.140;5.428;2022-07-23T03:04:00;3.25;;;3.05;;
72115;SDS011;59991;52.140;5.428;2022-07-23T03:04:31;4.20;;;3.78;;
72115;SDS011;59991;52.140;5.428;2022-07-23T03:05:03;3.58;;;3.28;;
72115;SDS011;59991;52.140;5.428;2022-07-23T03:05:34;3.53;;;3.28;;
72115;SDS011;59991;52.140;5.428;2022-07-23T03:06:06;5.10;;;3.05;;
72115;SDS011;59991;52.140;5.428;2022-07-23T03:06:38;4.60;;;2.80;;
72115;SDS011;59991;52.140;5.428;2022-07-23T03:07:09;3.45;;;3.08;;
72115;SDS011;59991;52.140;5.428;2022-07-23T03:08:30;3.07;;;2.80;;
72115;SDS011;59991;52.140;5.428;2022-07-23T03:09:02;3.30;;;3.00;;
72115;SDS011;59991;52.140;5.428;2022-07-23T03:09:35;3.75;;;3.00;;
72115;SDS011;59991;52.140;5.428;2022-07-23T03:10:06;3.72;;;3.42;;
72115;SDS011;59991;52.140;5.428;2022-07-23T03:10:38;3.60;;;3.30;;
72115;SDS011;59991;52.140;5.428;2022-07-23T03:11:09;3.35;;;3.05;;
72115;SDS011;59991;52.140;5.428;2022-07-23T03:11:47;3.10;;;2.63;;
72115;SDS011;59991;52.140;5.428;2022-07-23T03:12:18;4.00;;;3.58;;
72115;SDS011;59991;52.140;5.428;2022-07-23T03:12:50;3.72;;;3.42;;
72115;SDS011;59991;52.140;5.428;2022-07-23T03:13:21;3.10;;;2.90;;
72115;SDS011;59991;52.140;5.428;2022-07-23T03:13:52;4.47;;;2.40;;
72115;SDS011;59991;52.140;5.428;2022-07-23T03:14:24;3.83;;;3.45;;
72115;SDS011;59991;52.140;5.428;2022-07-23T03:14:55;3.17;;;2.88;;
72115;SDS011;59991;52.140;5.428;2022-07-23T03:15:44;5.00;;;2.85;;
72115;SDS011;59991;52.140;5.428;2022-07-23T03:16:15;3.20;;;2.95;;
72115;SDS011;59991;52.140;5.428;2022-07-23T03:16:47;3.08;;;2.83;;
72115;SDS011;59991;52.140;5.428;2022-07-23T03:17:20;2.88;;;2.47;;
72115;SDS011;59991;52.140;5.428;2022-07-23T03:17:52;3.88;;;3.10;;
72115;SDS011;59991;52.140;5.428;2022-07-23T03:18:23;5.70;;;3.40;;
72115;SDS011;59991;52.140;5.428;2022-07-23T03:18:55;3.17;;;2.95;;
72115;SDS011;59991;52.140;5.428;2022-07-23T03:19:26;5.40;;;3.40;;
72115;SDS011;59991;52.140;5.428;2022-07-23T03:19:57;3.80;;;3.53;;
72115;SDS011;59991;52.140;5.428;2022-07-23T03:20:29;3.33;;;2.78;;
72115;SDS011;59991;52.140;5.428;2022-07-23T03:21:17;4.43;;;3.47;;
72115;SDS011;59991;52.140;5.428;2022-07-23T03:21:49;3.70;;;3.40;;
72115;SDS011;59991;52.140;5.428;2022-07-23T03:22:20;3.50;;;3.20;;
72115;SDS011;59991;52.140;5.428;2022-07-23T03:22:51;3.53;;;3.25;;
72115;SDS011;59991;52.140;5.428;2022-07-23T03:23:23;5.03;;;3.25;;
72115;SDS011;59991;52.140;5.428;2022-07-23T03:23:54;3.50;;;3.05;;
72115;SDS011;59991;52.140;5.428;2022-07-23T03:24:25;3.30;;;3.10;;
72115;SDS011;59991;52.140;5.428;2022-07-23T03:25:16;3.33;;;2.90;;
72115;SDS011;59991;52.140;5.428;2022-07-23T03:25:47;4.82;;;2.78;;
72115;SDS011;59991;52.140;5.428;2022-07-23T03:26:24;6.40;;;2.90;;